createdAt,value
2018-01-16T06:11:45.894Z,1.10
2018-01-16T06:14:14.870Z,1.13
2018-01-16T06:16:43.723Z,1.08
2018-01-16T06:19:12.555Z,0.81
2018-01-16T06:21:41.385Z,0.49
2018-01-16T06:24:10.185Z,0.48
2018-01-16T06:26:40.183Z,0.62
2018-01-16T06:29:09.205Z,0.70
2018-01-16T06:31:38.109Z,0.60
2018-01-16T06:34:07.010Z,0.67
2018-01-16T06:36:35.935Z,0.64
2018-01-16T06:39:04.885Z,0.56
2018-01-16T06:41:36.188Z,0.52
2018-01-16T06:44:05.094Z,0.52
2018-01-16T06:46:33.948Z,0.24
2018-01-16T06:49:02.838Z,0.22
2018-01-16T06:51:31.764Z,0.19
2018-01-16T06:54:00.637Z,0.16
2018-01-16T06:56:30.338Z,0.03
2018-01-16T06:58:59.174Z,0.03
2018-01-16T07:01:27.988Z,-0.03
2018-01-16T07:03:56.901Z,0.02
2018-01-16T07:06:25.742Z,-0.02
2018-01-16T07:08:54.562Z,-0.19
2018-01-16T07:11:24.337Z,-0.20
2018-01-16T07:13:53.231Z,-0.20
2018-01-16T07:16:22.066Z,-0.26
2018-01-16T07:18:52.610Z,-0.42
2018-01-16T07:21:21.879Z,-0.49
2018-01-16T07:23:50.830Z,-0.33
2018-01-16T07:26:19.737Z,-0.41
2018-01-16T07:28:48.621Z,-0.73
2018-01-16T07:31:17.539Z,-0.84
2018-01-16T07:33:48.922Z,-0.72
2018-01-16T07:36:17.813Z,-1.04
2018-01-16T07:38:46.685Z,-0.82
2018-01-16T07:41:15.593Z,-0.83
2018-01-16T07:43:45.271Z,-0.77
2018-01-16T07:46:14.115Z,-0.78
2018-01-16T07:48:43.067Z,-0.70
2018-01-16T07:51:11.904Z,-0.72
2018-01-16T07:53:40.770Z,-0.70
2018-01-16T07:56:11.490Z,-0.70
2018-01-16T07:58:40.358Z,-0.76
2018-01-16T08:01:09.183Z,-0.64
2018-01-16T08:03:39.114Z,-0.61
2018-01-16T08:06:08.010Z,-0.89
2018-01-16T08:08:36.800Z,-1.18
2018-01-16T08:11:05.664Z,-1.14
2018-01-16T08:13:34.599Z,-1.18
2018-01-16T08:16:03.429Z,-1.17
2018-01-16T08:18:32.555Z,-1.37
2018-01-16T08:21:01.543Z,-1.29
2018-01-16T08:23:30.398Z,-1.26
2018-01-16T08:25:59.474Z,-0.96
2018-01-16T08:28:29.420Z,-0.82
2018-01-16T08:30:58.326Z,-1.03
2018-01-16T08:33:27.402Z,-1.07
2018-01-16T08:35:56.286Z,-1.02
2018-01-16T08:38:25.237Z,-0.98
2018-01-16T08:40:55.274Z,-0.92
2018-01-16T08:43:24.142Z,-0.79
2018-01-16T08:45:54.337Z,-0.70
2018-01-16T08:48:24.048Z,-0.76
2018-01-16T08:50:53.041Z,-0.65
2018-01-16T08:53:21.990Z,-0.64
2018-01-16T08:55:50.919Z,-0.63
2018-01-16T08:58:19.856Z,-0.73
2018-01-16T09:00:48.706Z,-0.74
2018-01-16T09:03:17.695Z,-0.83
2018-01-16T09:05:46.616Z,-0.85
2018-01-16T09:08:15.482Z,-0.57
2018-01-16T09:10:46.029Z,-0.35
2018-01-16T09:13:14.858Z,-0.11
2018-01-16T09:15:43.767Z,0.01
2018-01-16T09:18:12.716Z,0.12
2018-01-16T09:20:41.624Z,-0.02
2018-01-16T09:25:53.194Z,-0.22
2018-01-16T09:28:24.630Z,-0.31
2018-01-16T09:30:53.537Z,-0.29
2018-01-16T09:33:22.530Z,-0.07
2018-01-16T09:35:53.124Z,0.07
2018-01-16T09:38:21.962Z,0.13
2018-01-16T09:40:51.860Z,0.26
2018-01-16T09:43:21.644Z,0.49
2018-01-16T09:45:50.462Z,0.23
2018-01-16T09:48:19.299Z,0.21
2018-01-16T09:50:48.416Z,0.46
2018-01-16T09:53:17.336Z,0.55
2018-01-16T09:55:47.354Z,0.51
2018-01-16T09:58:17.360Z,0.35
2018-01-16T10:03:21.412Z,0.45
2018-01-16T10:05:51.218Z,0.73
2018-01-16T10:08:20.240Z,0.78
2018-01-16T10:10:51.033Z,0.66
2018-01-16T10:13:21.501Z,0.58
2018-01-16T10:15:50.466Z,0.60
2018-01-16T10:18:19.562Z,0.67
2018-01-16T10:20:48.550Z,0.62
2018-01-16T10:23:20.190Z,0.69
2018-01-16T10:25:49.589Z,0.64
2018-01-16T10:28:18.751Z,0.60
2018-01-16T10:30:48.422Z,0.50
2018-01-16T10:33:17.515Z,0.51
2018-01-16T10:35:46.673Z,0.54
2018-01-16T10:38:15.577Z,0.56
2018-01-16T10:40:48.185Z,0.59
2018-01-16T10:43:18.329Z,0.56
2018-01-16T10:45:47.707Z,0.48
2018-01-16T10:48:18.546Z,0.54
2018-01-16T10:50:47.641Z,0.77
2018-01-16T10:53:16.670Z,0.85
2018-01-16T10:55:45.969Z,0.93
2018-01-16T10:58:15.034Z,0.96
2018-01-16T11:00:44.029Z,1.02
2018-01-16T11:03:13.968Z,0.81
2018-01-16T11:05:44.687Z,0.74
2018-01-16T11:08:16.048Z,0.68
2018-01-16T11:10:45.150Z,0.60
2018-01-16T11:13:14.333Z,0.66
2018-01-16T11:15:47.108Z,0.48
2018-01-16T11:18:16.004Z,0.70
2018-01-16T11:20:44.856Z,0.79
2018-01-16T11:23:15.328Z,0.98
2018-01-16T11:25:44.161Z,0.66
2018-01-16T11:28:13.098Z,0.78
2018-01-16T11:30:42.971Z,0.76
2018-01-16T11:33:11.789Z,0.89
2018-01-16T11:35:40.617Z,1.12
2018-01-16T11:38:09.501Z,0.95
2018-01-16T11:40:38.378Z,0.89
2018-01-16T11:43:07.244Z,0.81
2018-01-16T11:45:38.682Z,0.82
2018-01-16T11:48:07.533Z,0.93
2018-01-16T11:50:36.381Z,0.86
2018-01-16T11:53:05.390Z,0.84
2018-01-16T11:55:34.329Z,1.04
2018-01-16T11:58:03.252Z,1.09
2018-01-16T12:00:34.582Z,1.00
2018-01-16T12:03:03.435Z,0.86
2018-01-16T12:05:32.367Z,1.02
2018-01-16T12:08:02.285Z,0.98
2018-01-16T12:10:31.113Z,1.02
2018-01-16T12:12:59.977Z,0.94
2018-01-16T12:15:29.824Z,0.93
2018-01-16T12:17:58.780Z,0.85
2018-01-16T12:20:27.689Z,0.99
2018-01-16T12:22:57.586Z,0.98
2018-01-16T12:25:26.416Z,1.02
2018-01-16T12:27:55.244Z,0.99
2018-01-16T12:30:24.348Z,1.10
2018-01-16T12:32:53.209Z,1.10
2018-01-16T12:35:22.117Z,1.24
2018-01-16T12:37:51.000Z,1.41
2018-01-16T12:40:19.944Z,1.58
2018-01-16T12:42:48.813Z,1.69
2018-01-16T12:45:17.913Z,1.76
2018-01-16T12:47:46.789Z,1.79
2018-01-16T12:50:15.645Z,1.86
2018-01-16T12:52:45.342Z,1.96
2018-01-16T12:55:14.219Z,2.08
2018-01-16T12:57:43.123Z,2.03
2018-01-16T13:00:14.475Z,2.05
2018-01-16T13:02:43.406Z,1.93
2018-01-16T13:05:12.254Z,1.98
2018-01-16T13:07:41.284Z,1.85
2018-01-16T13:10:10.248Z,1.94
2018-01-16T13:12:39.087Z,1.95
2018-01-16T13:15:09.824Z,2.10
2018-01-16T13:17:38.655Z,2.18
2018-01-16T13:20:07.601Z,2.17
2018-01-16T13:22:36.462Z,2.19
2018-01-16T13:25:05.337Z,1.92
2018-01-16T13:27:34.157Z,1.95
2018-01-16T13:30:08.227Z,1.96
2018-01-16T13:32:37.061Z,2.00
2018-01-16T13:35:05.978Z,2.12
2018-01-16T13:37:34.905Z,2.05
2018-01-16T13:40:03.773Z,2.02
2018-01-16T13:42:32.651Z,2.03
2018-01-16T13:45:03.201Z,1.97
2018-01-16T13:47:32.040Z,2.02
2018-01-16T13:50:00.928Z,1.98
2018-01-16T13:52:30.677Z,2.04
2018-01-16T13:54:59.554Z,2.00
2018-01-16T13:57:28.405Z,1.87
2018-01-16T13:59:59.006Z,1.88
2018-01-16T14:02:27.807Z,1.86
2018-01-16T14:04:56.687Z,1.80
2018-01-16T14:07:25.648Z,1.68
2018-01-16T14:09:54.525Z,1.61
2018-01-16T14:12:23.409Z,1.60
2018-01-16T14:14:52.290Z,1.61
2018-01-16T14:17:21.105Z,1.48
2018-01-16T14:19:49.918Z,1.39
2018-01-16T14:22:19.844Z,1.40
2018-01-16T14:24:48.768Z,1.37
2018-01-16T14:27:17.624Z,1.33
2018-01-16T14:29:49.109Z,1.36
2018-01-16T14:32:18.330Z,1.38
2018-01-16T14:34:51.155Z,1.34
2018-01-16T14:37:20.222Z,1.33
2018-01-16T14:39:49.314Z,1.28
2018-01-16T14:42:19.267Z,1.25
2018-01-16T14:44:48.308Z,1.18
2018-01-16T14:47:18.152Z,1.11
2018-01-16T14:49:49.733Z,1.13
2018-01-16T14:52:19.461Z,1.08
2018-01-16T14:54:49.517Z,1.03
2018-01-16T14:57:20.455Z,0.96
2018-01-16T14:59:49.571Z,0.96
2018-01-16T15:02:19.548Z,0.97
2018-01-16T15:04:53.831Z,0.96
2018-01-16T15:07:23.691Z,0.96
2018-01-16T15:09:53.494Z,0.95
2018-01-16T15:12:22.532Z,0.82
2018-01-16T15:14:51.485Z,0.74
2018-01-16T15:17:20.938Z,0.72
2018-01-16T15:19:50.158Z,0.63
2018-01-16T15:22:19.176Z,0.51
2018-01-16T15:24:48.347Z,0.55
2018-01-16T15:27:19.883Z,0.47
2018-01-16T15:29:49.239Z,0.42
2018-01-16T15:32:18.732Z,0.45
2018-01-16T15:34:48.000Z,0.49
2018-01-16T15:37:17.030Z,0.62
2018-01-16T15:39:46.134Z,0.67
2018-01-16T15:42:16.376Z,0.66
2018-01-16T15:44:45.610Z,0.67
2018-01-16T15:47:14.595Z,0.72
2018-01-16T15:49:43.770Z,0.65
2018-01-16T15:52:13.655Z,0.64
2018-01-16T15:54:43.779Z,0.65
2018-01-16T15:57:17.236Z,0.56
2018-01-16T15:59:46.786Z,0.54
2018-01-16T16:02:15.958Z,0.52
2018-01-16T16:04:46.815Z,0.48
2018-01-16T16:07:16.425Z,0.43
2018-01-16T16:09:46.132Z,0.54
2018-01-16T16:12:15.234Z,0.54
2018-01-16T16:14:45.028Z,0.57
2018-01-16T16:17:14.030Z,0.63
2018-01-16T16:19:44.774Z,0.76
2018-01-16T16:22:14.620Z,0.78
2018-01-16T16:24:43.890Z,0.79
2018-01-16T16:27:15.784Z,0.82
2018-01-16T16:29:44.879Z,0.93
2018-01-16T16:32:15.734Z,0.96
2018-01-16T16:34:47.237Z,1.01
2018-01-16T16:37:16.333Z,1.04
2018-01-16T16:39:45.428Z,1.01
2018-01-16T16:42:14.655Z,1.01
2018-01-16T16:44:44.744Z,0.96
2018-01-16T16:47:13.958Z,0.92
2018-01-16T16:49:45.003Z,0.93
2018-01-16T16:52:15.046Z,0.94
2018-01-16T16:54:44.592Z,0.94
2018-01-16T16:57:15.959Z,0.97
2018-01-16T16:59:45.985Z,1.04
2018-01-16T17:02:18.356Z,1.10
2018-01-16T17:04:47.448Z,1.12
2018-01-16T17:07:16.500Z,1.16
2018-01-16T17:09:47.181Z,1.26
2018-01-16T17:12:16.347Z,1.30
2018-01-16T17:14:46.952Z,1.30
2018-01-16T17:17:16.210Z,1.34
2018-01-16T17:19:46.858Z,1.33
2018-01-16T17:22:17.508Z,1.39
2018-01-16T17:24:47.649Z,1.37
2018-01-16T17:27:19.622Z,1.42
2018-01-16T17:29:49.058Z,1.48
2018-01-16T17:32:18.297Z,1.45
2018-01-16T17:34:51.960Z,1.45
2018-01-16T17:37:21.546Z,1.50
2018-01-16T17:39:50.774Z,1.59
2018-01-16T17:42:20.169Z,1.65
2018-01-16T17:44:50.149Z,1.67
2018-01-16T17:47:19.284Z,1.66
2018-01-16T17:49:49.542Z,1.64
2018-01-16T17:52:18.818Z,1.75
2018-01-16T17:54:48.013Z,1.83
2018-01-16T17:57:17.528Z,1.86
2018-01-16T17:59:48.297Z,1.97
2018-01-16T18:02:17.427Z,2.01
2018-01-16T18:04:47.640Z,2.05
2018-01-16T18:07:18.276Z,2.12
2018-01-16T18:09:47.581Z,2.14
2018-01-16T18:12:17.752Z,2.20
2018-01-16T18:14:47.686Z,2.27
2018-01-16T18:17:17.542Z,2.32
2018-01-16T18:19:47.405Z,2.39
2018-01-16T18:22:16.645Z,2.42
2018-01-16T18:24:47.413Z,2.41
2018-01-16T18:27:17.695Z,2.46
2018-01-16T18:29:51.020Z,2.47
2018-01-16T18:32:22.615Z,2.52
2018-01-16T18:34:51.788Z,2.52
2018-01-16T18:37:21.493Z,2.55
2018-01-16T18:39:50.780Z,2.60
2018-01-16T18:42:20.180Z,2.55
2018-01-16T18:44:50.065Z,2.55
2018-01-16T18:47:20.357Z,2.56
2018-01-16T18:49:49.672Z,2.41
2018-01-16T18:52:19.037Z,2.47
2018-01-16T18:54:54.424Z,2.55
2018-01-16T18:57:23.397Z,2.62
2018-01-16T18:59:52.306Z,2.61
2018-01-16T19:02:21.438Z,2.65
2018-01-16T19:04:50.405Z,2.64
2018-01-16T19:07:19.291Z,2.62
2018-01-16T19:09:48.233Z,2.62
2018-01-16T19:12:17.090Z,2.63
2018-01-16T19:14:45.961Z,2.64
2018-01-16T19:17:15.600Z,2.64
2018-01-16T19:19:44.520Z,2.72
2018-01-16T19:22:13.716Z,2.78
2018-01-16T19:24:43.546Z,2.76
2018-01-16T19:27:12.555Z,2.78
2018-01-16T19:29:41.583Z,2.75
2018-01-16T19:32:11.432Z,2.77
2018-01-16T19:34:40.445Z,2.77
2018-01-16T19:37:09.375Z,2.78
2018-01-16T19:39:39.393Z,2.77
2018-01-16T19:44:36.127Z,2.75
2018-01-16T19:47:05.397Z,2.74
2018-01-16T19:49:34.369Z,2.80
2018-01-16T19:52:03.439Z,2.87
2018-01-16T19:54:34.202Z,2.89
2018-01-16T19:57:04.187Z,2.92
2018-01-16T19:59:33.414Z,2.93
2018-01-16T20:02:03.301Z,2.96
2018-01-16T20:04:33.168Z,2.97
2018-01-16T20:07:02.518Z,2.99
2018-01-16T20:09:33.817Z,3.02
2018-01-16T20:12:03.970Z,2.98
2018-01-16T20:14:45.356Z,2.88
2018-01-16T20:17:14.472Z,2.86
2018-01-16T20:19:43.632Z,2.92
2018-01-16T20:22:12.774Z,2.96
2018-01-16T20:24:41.932Z,3.02
2018-01-16T20:27:10.895Z,2.94
2018-01-16T20:29:40.774Z,2.97
2018-01-16T20:32:09.914Z,2.97
2018-01-16T20:34:38.957Z,2.98
2018-01-16T20:37:08.865Z,3.05
2018-01-16T20:39:37.683Z,3.05
2018-01-16T20:42:06.612Z,3.06
2018-01-16T20:44:35.556Z,3.02
2018-01-16T20:47:04.413Z,3.03
2018-01-16T20:49:33.269Z,3.06
2018-01-16T20:52:02.245Z,3.05
2018-01-16T20:54:31.075Z,3.08
2018-01-16T20:56:59.977Z,3.10
2018-01-16T20:59:29.101Z,3.10
2018-01-16T21:01:58.190Z,2.99
2018-01-16T21:04:27.119Z,2.97
2018-01-16T21:06:59.644Z,3.00
2018-01-16T21:09:28.641Z,2.96
2018-01-16T21:11:57.632Z,3.02
2018-01-16T21:14:27.345Z,2.96
2018-01-16T21:16:56.194Z,2.98
2018-01-16T21:19:25.135Z,3.03
2018-01-16T21:21:54.901Z,3.06
2018-01-16T21:24:24.855Z,3.08
2018-01-16T21:26:53.994Z,3.11
2018-01-16T21:29:23.434Z,3.22
2018-01-16T21:31:53.209Z,3.31
2018-01-16T21:34:22.307Z,3.30
2018-01-16T21:36:52.615Z,3.36
2018-01-16T21:39:21.555Z,3.53
2018-01-16T21:41:51.486Z,3.44
2018-01-16T21:44:22.166Z,3.44
2018-01-16T21:46:51.163Z,3.53
2018-01-16T21:49:20.186Z,3.47
2018-01-16T21:51:50.379Z,3.31
2018-01-16T21:54:21.380Z,3.22
2018-01-16T21:56:50.657Z,3.38
2018-01-16T21:59:20.857Z,3.55
2018-01-16T22:01:50.137Z,3.56
2018-01-16T22:04:19.043Z,3.60
2018-01-16T22:06:58.197Z,3.55
2018-01-16T22:09:27.402Z,3.45
2018-01-16T22:11:57.319Z,3.53
2018-01-16T22:14:28.211Z,3.60
2018-01-16T22:16:57.351Z,3.63
2018-01-16T22:19:27.271Z,3.56
2018-01-16T22:21:56.364Z,3.54
2018-01-16T22:24:26.214Z,3.53
2018-01-16T22:26:55.419Z,3.54
2018-01-16T22:29:24.503Z,3.50
2018-01-16T22:31:53.772Z,3.44
2018-01-16T22:34:23.891Z,3.45
2018-01-16T22:36:53.861Z,3.54
2018-01-16T22:39:23.621Z,3.60
2018-01-16T22:41:52.613Z,3.67
2018-01-16T22:44:22.600Z,3.64
2018-01-16T22:46:51.681Z,3.59
2018-01-16T22:49:20.971Z,3.52
2018-01-16T22:51:52.513Z,3.55
2018-01-16T22:54:22.553Z,3.44
2018-01-16T22:56:51.765Z,3.40
2018-01-16T22:59:24.033Z,3.44
2018-01-16T23:01:53.064Z,3.33
2018-01-16T23:04:22.192Z,3.30
2018-01-16T23:06:51.358Z,3.37
2018-01-16T23:09:20.431Z,3.53
2018-01-16T23:11:49.635Z,3.57
2018-01-16T23:14:20.692Z,3.56
2018-01-16T23:16:50.698Z,3.48
2018-01-16T23:19:20.927Z,3.52
2018-01-16T23:21:51.154Z,3.54
2018-01-16T23:24:20.552Z,3.48
2018-01-16T23:26:49.715Z,3.34
2018-01-16T23:29:28.232Z,3.37
2018-01-16T23:31:57.499Z,3.40
2018-01-16T23:34:26.402Z,3.33
2018-01-16T23:36:55.661Z,3.40
2018-01-16T23:39:24.687Z,3.40
2018-01-16T23:41:53.975Z,3.45
2018-01-16T23:44:22.993Z,3.51
2018-01-16T23:46:52.921Z,3.56
2018-01-16T23:49:21.825Z,3.65
2018-01-16T23:51:53.515Z,3.70
2018-01-16T23:54:22.499Z,3.74
2018-01-16T23:56:52.421Z,3.72
2018-01-16T23:59:21.875Z,3.75
